Time;durP1;ratioP1;P1;durP2;ratioP2;P2;SDS_P1;SDS_P2;PMS_P1;PMS_P2;Temp;Humidity;BMP_temperature;BMP_pressure;BME280_temperature;BME280_humidity;BME280_pressure;Samples;Min_cycle;Max_cycle;Signal;HPM_P1;HPM_P2
2023/10/16 00:01:16;;;;;;;4.70;2.87;;;7.20;96.60;;;;;;4974402;28;20062;-81
2023/10/16 00:03:42;;;;;;;7.00;2.67;;;7.30;96.80;;;;;;4974443;28;20030;-82
2023/10/16 00:06:11;;;;;;;9.10;3.37;;;7.30;96.90;;;;;;4974384;28;20035;-81
2023/10/16 00:08:46;;;;;;;6.57;3.17;;;7.30;97.00;;;;;;4974226;28;20031;-81
2023/10/16 00:11:16;;;;;;;7.43;3.27;;;7.20;97.10;;;;;;4973613;28;20041;-82
2023/10/16 00:13:43;;;;;;;13.70;2.87;;;7.20;97.20;;;;;;4956342;28;20364;-81
2023/10/16 00:16:15;;;;;;;6.93;2.83;;;7.20;97.40;;;;;;4956608;28;20035;-81
2023/10/16 00:18:41;;;;;;;7.77;2.97;;;7.30;97.50;;;;;;4973800;28;20106;-81
2023/10/16 00:21:07;;;;;;;5.60;3.07;;;7.30;97.70;;;;;;4973918;28;20039;-81
2023/10/16 00:23:38;;;;;;;5.57;2.83;;;7.30;97.80;;;;;;4974304;28;20612;-81
2023/10/16 00:26:14;;;;;;;7.77;2.80;;;7.30;97.90;;;;;;4973548;28;20035;-81
2023/10/16 00:28:45;;;;;;;9.00;3.07;;;7.30;97.90;;;;;;4901760;28;1595005;-82
2023/10/16 00:31:23;;;;;;;7.00;2.90;;;7.30;98.00;;;;;;4974993;28;20039;-82
2023/10/16 00:33:50;;;;;;;10.43;3.13;;;7.30;98.10;;;;;;4974544;28;20519;-81
2023/10/16 00:36:16;;;;;;;5.83;2.87;;;7.30;98.20;;;;;;4957338;28;20503;-81
2023/10/16 00:38:47;;;;;;;5.43;2.73;;;7.30;98.20;;;;;;4974814;28;20070;-81
2023/10/16 00:41:28;;;;;;;6.53;2.80;;;7.30;98.20;;;;;;4974186;28;20509;-81
2023/10/16 00:43:56;;;;;;;6.93;2.77;;;7.30;98.30;;;;;;4974463;28;20039;-82
2023/10/16 00:46:30;;;;;;;8.37;2.87;;;7.30;98.40;;;;;;4974353;28;20034;-81
2023/10/16 00:48:57;;;;;;;9.00;2.95;;;7.30;98.60;;;;;;4974353;28;20035;-81
2023/10/16 00:51:24;;;;;;;5.50;2.90;;;7.40;98.70;;;;;;4974292;28;20031;-81
2023/10/16 00:53:52;;;;;;;7.37;2.87;;;7.40;98.80;;;;;;4973926;28;20134;-81
2023/10/16 00:56:18;;;;;;;6.57;2.73;;;7.40;98.80;;;;;;4974050;28;20042;-81
2023/10/16 00:58:47;;;;;;;5.90;2.70;;;7.40;98.80;;;;;;4973942;28;20122;-81
2023/10/16 01:01:13;;;;;;;7.93;3.00;;;7.40;98.70;;;;;;4973875;28;20117;-81
2023/10/16 01:03:40;;;;;;;7.00;2.97;;;7.40;98.80;;;;;;4974348;28;20035;-81
2023/10/16 01:06:17;;;;;;;7.03;3.03;;;7.40;98.80;;;;;;4974068;28;20066;-81
2023/10/16 01:08:49;;;;;;;6.00;2.70;;;7.40;98.80;;;;;;4956322;28;20197;-80
2023/10/16 01:11:19;;;;;;;6.03;2.63;;;7.30;98.80;;;;;;4956980;28;20026;-81
2023/10/16 01:13:48;;;;;;;9.57;3.07;;;7.30;98.90;;;;;;4956414;28;20027;-81
2023/10/16 01:16:20;;;;;;;8.43;2.77;;;7.30;99.00;;;;;;4956867;28;20033;-81
2023/10/16 01:18:46;;;;;;;7.07;3.43;;;7.30;99.10;;;;;;4974099;28;20043;-81
2023/10/16 01:21:15;;;;;;;7.23;2.83;;;7.30;99.20;;;;;;4974262;28;20450;-82
2023/10/16 01:23:44;;;;;;;8.30;3.00;;;7.30;99.20;;;;;;4956466;28;20031;-81
2023/10/16 01:26:13;;;;;;;6.50;2.80;;;7.30;99.20;;;;;;4956572;28;20050;-81
2023/10/16 01:28:40;;;;;;;6.47;3.07;;;7.30;99.20;;;;;;4973608;28;20043;-81
2023/10/16 01:31:06;;;;;;;6.13;2.67;;;7.30;99.20;;;;;;4973804;28;20042;-81
2023/10/16 01:33:31;;;;;;;6.20;2.80;;;7.20;99.20;;;;;;4956649;28;20479;-81
2023/10/16 01:35:57;;;;;;;6.33;2.50;;;7.20;99.30;;;;;;4973968;28;20031;-82
2023/10/16 01:38:24;;;;;;;6.97;2.40;;;7.20;99.30;;;;;;4974201;28;20039;-81
2023/10/16 01:43:30;;;;;;;8.33;3.27;;;7.20;99.60;;;;;;4973831;28;20090;-81
2023/10/16 01:46:00;;;;;;;6.73;2.57;;;7.20;99.70;;;;;;4973698;28;20514;-81
2023/10/16 01:48:28;;;;;;;7.43;2.93;;;7.20;99.80;;;;;;4974081;28;20491;-81
2023/10/16 01:50:54;;;;;;;7.67;2.93;;;7.20;99.90;;;;;;4973967;28;20034;-81
2023/10/16 01:53:20;;;;;;;5.47;2.80;;;7.20;99.90;;;;;;4973563;28;20505;-80
2023/10/16 01:55:55;;;;;;;9.23;2.77;;;7.30;99.90;;;;;;4973839;28;20532;-81
2023/10/16 01:58:25;;;;;;;5.43;2.60;;;7.30;99.90;;;;;;4973603;28;20067;-81
2023/10/16 02:00:55;;;;;;;8.60;2.53;;;7.30;99.90;;;;;;4955953;28;20065;-80
2023/10/16 02:03:22;;;;;;;6.13;2.93;;;7.40;99.90;;;;;;4956526;28;20086;-82
2023/10/16 02:05:48;;;;;;;6.80;2.77;;;7.40;99.90;;;;;;4973498;28;20038;-81
2023/10/16 02:08:14;;;;;;;8.73;3.50;;;7.40;99.90;;;;;;4973256;28;20031;-81
2023/10/16 02:10:41;;;;;;;6.30;2.53;;;7.40;99.90;;;;;;4973641;28;20042;-81
2023/10/16 02:13:08;;;;;;;6.70;2.30;;;7.40;99.90;;;;;;4973324;28;20030;-81
2023/10/16 02:15:36;;;;;;;5.70;3.00;;;7.40;99.90;;;;;;4977009;28;20065;-81
2023/10/16 02:18:07;;;;;;;8.03;2.90;;;7.40;99.90;;;;;;4977136;28;20395;-82
2023/10/16 02:20:36;;;;;;;8.43;3.33;;;7.40;99.90;;;;;;4976653;28;20030;-81
2023/10/16 02:23:03;;;;;;;5.80;2.53;;;7.40;99.90;;;;;;4976469;28;20043;-81
2023/10/16 02:25:29;;;;;;;9.07;3.37;;;7.40;99.90;;;;;;4977049;28;20145;-81
2023/10/16 02:27:54;;;;;;;8.97;3.23;;;7.40;99.90;;;;;;4977063;28;20042;-81
2023/10/16 02:32:53;;;;;;;6.97;2.50;;;7.50;99.90;;;;;;4976960;28;20034;-81
2023/10/16 02:35:22;;;;;;;5.27;2.93;;;7.50;99.90;;;;;;4976012;28;20031;-81
2023/10/16 02:37:53;;;;;;;7.17;2.47;;;7.50;99.90;;;;;;4959485;28;20038;-81
2023/10/16 02:40:20;;;;;;;5.10;2.47;;;7.50;99.90;;;;;;4978154;28;20038;-81
2023/10/16 02:42:55;;;;;;;7.60;2.60;;;7.50;99.90;;;;;;4977347;28;20050;-81
2023/10/16 02:45:25;;;;;;;5.63;2.70;;;7.50;99.90;;;;;;4960092;28;20053;-81
2023/10/16 02:47:51;;;;;;;4.13;2.13;;;7.50;99.90;;;;;;4959495;28;20027;-82
2023/10/16 02:50:18;;;;;;;9.77;2.67;;;7.50;99.90;;;;;;4976187;28;20070;-81
2023/10/16 02:52:48;;;;;;;7.37;3.03;;;7.50;99.90;;;;;;4959043;28;20026;-81
2023/10/16 02:55:15;;;;;;;4.10;1.90;;;7.60;99.90;;;;;;4976619;28;20053;-81
2023/10/16 02:57:41;;;;;;;7.30;2.60;;;7.60;99.90;;;;;;4958674;28;20428;-81
2023/10/16 03:00:55;;;;;;;5.67;2.17;;;7.60;99.90;;;;;;4976666;28;20059;-81
2023/10/16 03:02:57;;;;;;;8.97;2.67;;;7.60;99.90;;;;;;4962466;28;20449;-81
2023/10/16 03:05:24;;;;;;;6.37;2.20;;;7.60;99.90;;;;;;4975883;28;20027;-81
2023/10/16 03:07:51;;;;;;;4.87;2.57;;;7.60;99.90;;;;;;4976325;28;20029;-81
2023/10/16 03:10:20;;;;;;;4.20;2.17;;;7.70;99.90;;;;;;4976210;28;20023;-81
2023/10/16 03:12:52;;;;;;;7.00;2.40;;;7.70;99.90;;;;;;4975553;28;20030;-81
2023/10/16 03:15:26;;;;;;;5.40;2.23;;;7.70;99.90;;;;;;4976001;28;20042;-81
2023/10/16 03:17:54;;;;;;;4.77;2.00;;;7.60;99.90;;;;;;4976063;28;20046;-81
2023/10/16 03:20:22;;;;;;;7.40;2.43;;;7.70;99.90;;;;;;4975635;28;20019;-81
2023/10/16 03:22:50;;;;;;;7.13;2.47;;;7.50;99.90;;;;;;4975810;28;20466;-81
2023/10/16 03:28:18;;;;;;;5.80;1.87;;;7.50;99.90;;;;;;4897516;29;20029;-80
2023/10/16 03:30:44;;;;;;;4.13;1.93;;;7.50;99.90;;;;;;4958911;28;20057;-81
2023/10/16 03:33:14;;;;;;;5.07;2.17;;;7.40;99.90;;;;;;4975366;28;20118;-81
2023/10/16 03:35:43;;;;;;;4.80;2.40;;;7.40;99.90;;;;;;4975816;28;20102;-80
2023/10/16 03:38:10;;;;;;;4.90;2.00;;;7.40;99.90;;;;;;4975638;28;20113;-81
2023/10/16 03:40:36;;;;;;;6.43;2.33;;;7.40;99.90;;;;;;4975552;28;20106;-81
2023/10/16 03:43:02;;;;;;;6.50;2.27;;;7.40;99.90;;;;;;4957988;28;20505;-80
2023/10/16 03:45:28;;;;;;;5.63;2.23;;;7.50;99.90;;;;;;4975140;28;20035;-80
2023/10/16 03:47:57;;;;;;;5.43;2.13;;;7.50;99.90;;;;;;4975382;28;20161;-81
2023/10/16 03:50:25;;;;;;;4.43;2.17;;;7.50;99.90;;;;;;4975136;28;20031;-81
2023/10/16 03:52:54;;;;;;;7.03;2.63;;;7.50;99.90;;;;;;4975318;28;20039;-81
2023/10/16 03:55:24;;;;;;;4.13;2.00;;;7.60;99.90;;;;;;4975543;28;20133;-81
2023/10/16 03:57:51;;;;;;;4.63;2.20;;;7.60;99.90;;;;;;4975041;28;20034;-82
2023/10/16 04:00:26;;;;;;;4.73;2.33;;;7.60;99.90;;;;;;4975195;28;20034;-82
2023/10/16 04:02:52;;;;;;;7.63;2.47;;;7.70;99.90;;;;;;4956984;28;20043;-82
2023/10/16 04:08:02;;;;;;;5.78;2.42;;;7.80;99.90;;;;;;4974987;28;20049;-82
2023/10/16 04:10:30;;;;;;;5.83;2.17;;;7.80;99.90;;;;;;4957694;28;20039;-81
2023/10/16 04:12:57;;;;;;;5.07;1.70;;;7.80;99.90;;;;;;4974670;28;20035;-81
2023/10/16 04:15:47;;;;;;;3.90;1.77;;;7.80;99.90;;;;;;4975063;28;20034;-81
2023/10/16 04:18:19;;;;;;;6.17;1.73;;;7.80;99.90;;;;;;4974360;28;20026;-81
2023/10/16 04:20:46;;;;;;;6.80;1.97;;;7.80;99.90;;;;;;4974880;28;20114;-81
2023/10/16 04:23:37;;;;;;;3.50;1.80;;;7.90;99.90;;;;;;4974876;28;20041;-81
2023/10/16 04:31:44;;;;;;;5.88;2.00;;;8.00;99.90;;;;;;4974697;28;20122;-81
2023/10/16 04:34:39;;;;;;;5.10;1.90;;;8.00;99.90;;;;;;4957255;28;20046;-81
2023/10/16 04:53:09;;;;;;;;;;;8.20;99.90;;;;;;4974365;28;20031;-82
2023/10/16 05:03:35;;;;;;;4.90;2.23;;;8.30;99.90;;;;;;4954518;29;20102;-83
2023/10/16 05:08:59;;;;;;;9.70;3.03;;;8.20;99.90;;;;;;4955059;29;20546;-82
2023/10/16 05:16:30;;;;;;;5.67;2.13;;;8.30;99.90;;;;;;4954533;29;20118;-83
2023/10/16 06:14:11;;;;;;;6.25;2.08;;;8.30;99.90;;;;;;4956970;29;20067;-80
2023/10/16 06:16:41;;;;;;;3.90;2.23;;;8.40;99.90;;;;;;4957904;29;20063;-80
2023/10/16 06:19:17;;;;;;;4.20;1.77;;;8.40;99.90;;;;;;4958057;29;20039;-80
2023/10/16 06:21:48;;;;;;;4.63;1.70;;;8.40;99.90;;;;;;4957755;29;20039;-80
2023/10/16 06:24:35;;;;;;;5.83;2.50;;;8.40;99.90;;;;;;4957491;29;20075;-80
2023/10/16 06:29:57;;;;;;;6.30;2.33;;;8.50;99.90;;;;;;4936638;29;20040;-80
2023/10/16 06:32:26;;;;;;;3.83;2.00;;;8.50;99.90;;;;;;4957666;29;20045;-80
2023/10/16 06:35:03;;;;;;;10.60;2.90;;;8.50;99.90;;;;;;4939856;29;20547;-79
2023/10/16 06:37:31;;;;;;;6.20;2.73;;;8.60;99.90;;;;;;4957643;29;20035;-80
2023/10/16 06:40:01;;;;;;;4.67;2.10;;;8.60;99.90;;;;;;4957414;29;20035;-80
2023/10/16 06:42:29;;;;;;;4.87;2.27;;;8.60;99.90;;;;;;4958084;29;20047;-79
2023/10/16 06:44:56;;;;;;;7.93;2.60;;;8.60;99.90;;;;;;4942494;29;20357;-79
2023/10/16 06:47:35;;;;;;;5.47;2.37;;;8.60;99.90;;;;;;4962814;29;20031;-79
2023/10/16 06:50:01;;;;;;;8.27;2.80;;;8.60;99.90;;;;;;4960881;29;20114;-80
2023/10/16 06:52:27;;;;;;;6.33;2.00;;;8.60;99.90;;;;;;4957279;29;20525;-79
2023/10/16 06:54:52;;;;;;;8.10;3.10;;;8.70;99.90;;;;;;4957260;29;20023;-80
2023/10/16 06:57:19;;;;;;;7.47;3.03;;;8.70;99.90;;;;;;4956710;29;20043;-81
2023/10/16 06:59:45;;;;;;;8.27;2.93;;;8.70;99.90;;;;;;4939373;29;20443;-81
2023/10/16 07:02:19;;;;;;;9.13;3.20;;;8.70;99.90;;;;;;4939961;29;20039;-80
2023/10/16 07:04:46;;;;;;;6.00;2.73;;;8.70;99.90;;;;;;4957120;29;20027;-80
2023/10/16 07:07:17;;;;;;;8.43;3.40;;;8.70;99.90;;;;;;4956808;29;20114;-81
2023/10/16 07:09:49;;;;;;;8.30;3.50;;;8.70;99.90;;;;;;4939939;29;20027;-80
2023/10/16 07:12:18;;;;;;;7.70;3.10;;;8.80;99.90;;;;;;4956595;29;20067;-81
2023/10/16 07:15:01;;;;;;;8.10;3.30;;;8.80;99.90;;;;;;4939213;29;20526;-80
2023/10/16 07:17:30;;;;;;;6.27;3.20;;;8.70;99.90;;;;;;4957041;29;20510;-80
2023/10/16 07:19:59;;;;;;;6.90;3.03;;;8.70;99.90;;;;;;4956502;29;20511;-80
2023/10/16 07:22:32;;;;;;;9.27;3.07;;;8.70;99.90;;;;;;4956525;29;20094;-80
2023/10/16 07:25:08;;;;;;;8.80;3.80;;;8.80;99.90;;;;;;4956532;29;20110;-80
2023/10/16 07:27:35;;;;;;;9.43;3.20;;;8.80;99.90;;;;;;4956225;29;20082;-80
2023/10/16 07:30:01;;;;;;;11.13;3.13;;;8.80;99.90;;;;;;4956555;28;20038;-80
2023/10/16 07:32:27;;;;;;;8.87;3.40;;;8.80;99.90;;;;;;4939055;29;20039;-80
2023/10/16 07:34:52;;;;;;;8.40;3.70;;;8.90;99.90;;;;;;4939431;29;20035;-80
2023/10/16 07:37:18;;;;;;;6.03;3.10;;;8.90;99.90;;;;;;4956291;29;20035;-80
2023/10/16 07:39:43;;;;;;;5.53;2.80;;;8.90;99.90;;;;;;4938578;29;20476;-80
2023/10/16 07:42:10;;;;;;;6.87;4.10;;;9.00;99.90;;;;;;4956015;28;20054;-81
2023/10/16 07:44:36;;;;;;;10.37;4.03;;;9.00;99.90;;;;;;4956109;29;20122;-80
2023/10/16 07:47:03;;;;;;;14.17;3.20;;;9.10;99.90;;;;;;4956248;29;20432;-81
2023/10/16 07:49:28;;;;;;;9.93;3.83;;;9.10;99.90;;;;;;4938906;29;20115;-80
2023/10/16 07:51:56;;;;;;;7.97;3.40;;;9.20;99.90;;;;;;4956059;29;20114;-80
2023/10/16 07:54:22;;;;;;;8.37;3.57;;;9.20;99.90;;;;;;4938601;29;20507;-81
2023/10/16 07:56:51;;;;;;;8.00;3.70;;;9.30;99.90;;;;;;4938799;29;20028;-80
2023/10/16 07:59:19;;;;;;;7.03;3.70;;;9.30;99.90;;;;;;4955832;29;20074;-80
2023/10/16 08:01:48;;;;;;;7.63;3.13;;;9.40;99.90;;;;;;4955648;29;20464;-80
2023/10/16 08:04:19;;;;;;;9.07;2.83;;;9.40;99.90;;;;;;4956117;29;20432;-80
2023/10/16 08:06:46;;;;;;;5.60;3.40;;;9.40;99.90;;;;;;4955681;29;20038;-80
2023/10/16 08:09:48;;;;;;;8.67;3.63;;;9.60;99.90;;;;;;4938047;29;20090;-80
2023/10/16 08:12:35;;;;;;;6.83;2.93;;;9.70;99.90;;;;;;4952822;28;20118;-81
2023/10/16 08:14:47;;;;;;;7.90;3.83;;;9.70;99.90;;;;;;4954789;29;20050;-80
2023/10/16 08:17:17;;;;;;;5.83;3.27;;;9.80;99.90;;;;;;4955529;29;20572;-80
2023/10/16 08:19:49;;;;;;;8.07;3.20;;;9.80;99.90;;;;;;4938385;29;20054;-80
2023/10/16 08:22:15;;;;;;;6.60;3.10;;;9.90;99.90;;;;;;4955487;29;20501;-81
2023/10/16 08:24:57;;;;;;;8.53;3.30;;;10.00;99.90;;;;;;4937820;29;20027;-81
2023/10/16 08:27:40;;;;;;;6.67;3.10;;;10.00;99.90;;;;;;4955526;29;20031;-80
2023/10/16 08:33:00;;;;;;;7.60;3.20;;;10.20;99.90;;;;;;4955650;29;20086;-81
2023/10/16 08:35:38;;;;;;;8.00;3.72;;;10.20;99.90;;;;;;4955487;29;20547;-80
2023/10/16 08:41:14;;;;;;;6.60;3.17;;;10.30;99.90;;;;;;4942210;29;20043;-80
2023/10/16 08:43:53;;;;;;;6.95;3.30;;;10.40;99.90;;;;;;4955207;29;20046;-81
2023/10/16 08:46:24;;;;;;;9.20;3.65;;;10.40;99.90;;;;;;4937870;29;20472;-80
2023/10/16 08:48:57;;;;;;;8.55;3.38;;;10.50;99.90;;;;;;4938151;29;20368;-81
2023/10/16 08:51:23;;;;;;;6.90;3.58;;;10.60;99.90;;;;;;4955778;29;20043;-81
2023/10/16 08:53:49;;;;;;;7.20;3.60;;;10.70;99.90;;;;;;4955476;29;20456;-81
2023/10/16 08:56:18;;;;;;;7.32;3.25;;;10.70;99.90;;;;;;4955567;29;20035;-81
2023/10/16 08:58:45;;;;;;;6.75;3.30;;;10.80;99.90;;;;;;4954846;29;20042;-80
2023/10/16 09:01:13;;;;;;;6.57;3.13;;;11.00;99.90;;;;;;4954760;29;20031;-80
2023/10/16 09:04:13;;;;;;;11.20;2.72;;;11.10;99.90;;;;;;4954816;29;20416;-80
2023/10/16 09:06:38;;;;;;;5.88;2.83;;;11.20;99.90;;;;;;4937707;29;20035;-80
2023/10/16 09:09:13;;;;;;;5.85;2.92;;;11.40;99.90;;;;;;4937605;29;20491;-80
2023/10/16 09:11:39;;;;;;;6.15;2.40;;;11.50;99.90;;;;;;4937630;29;20043;-80
2023/10/16 09:14:07;;;;;;;6.75;2.70;;;11.70;99.90;;;;;;4937108;29;20093;-80
2023/10/16 09:16:34;;;;;;;10.35;3.47;;;11.80;99.90;;;;;;4954709;29;20043;-80
2023/10/16 09:19:06;;;;;;;7.72;2.28;;;11.90;99.90;;;;;;4937784;29;20036;-81
2023/10/16 09:21:38;;;;;;;4.55;1.80;;;12.10;99.90;;;;;;4954448;29;20404;-80
2023/10/16 09:24:05;;;;;;;7.32;2.38;;;12.20;99.90;;;;;;4957594;28;20039;-80
2023/10/16 09:26:44;;;;;;;4.95;1.92;;;12.40;99.90;;;;;;4958597;29;20527;-81
2023/10/16 09:29:20;;;;;;;4.43;1.70;;;12.50;99.90;;;;;;4958534;28;20047;-81
2023/10/16 09:31:46;;;;;;;5.40;1.42;;;12.60;99.90;;;;;;4941056;29;20027;-81
2023/10/16 09:34:17;;;;;;;4.25;1.48;;;12.80;99.90;;;;;;4958534;29;20038;-81
2023/10/16 09:39:34;;;;;;;3.85;0.93;;;13.20;99.90;;;;;;4958462;29;20071;-79
2023/10/16 09:42:12;;;;;;;4.65;1.10;;;13.50;99.90;;;;;;4941069;29;20039;-80
2023/10/16 09:44:56;;;;;;;5.25;0.80;;;13.60;99.40;;;;;;4958269;29;20097;-80
2023/10/16 09:47:26;;;;;;;3.00;0.82;;;13.70;99.00;;;;;;4958394;29;20050;-80
2023/10/16 09:50:00;;;;;;;4.13;0.70;;;13.80;98.70;;;;;;4958232;29;20035;-81
2023/10/16 09:52:31;;;;;;;4.07;0.70;;;14.00;98.80;;;;;;4940622;29;20027;-81
2023/10/16 09:54:58;;;;;;;3.05;0.80;;;14.40;98.80;;;;;;4958164;29;20040;-81
2023/10/16 09:57:29;;;;;;;8.60;1.13;;;14.70;98.60;;;;;;4940872;29;20131;-81
2023/10/16 10:00:00;;;;;;;4.38;0.85;;;15.00;98.60;;;;;;4940479;29;20043;-81
2023/10/16 10:02:27;;;;;;;2.70;0.68;;;15.50;98.50;;;;;;4958083;29;20400;-81
2023/10/16 10:05:04;;;;;;;3.30;0.70;;;15.80;97.70;;;;;;4958177;28;20506;-82
2023/10/16 10:07:36;;;;;;;1.85;0.47;;;16.10;96.70;;;;;;4958037;29;20110;-81
2023/10/16 10:12:56;;;;;;;2.85;0.60;;;16.80;96.40;;;;;;4920971;29;20035;-81
2023/10/16 10:15:29;;;;;;;3.08;0.50;;;17.40;95.80;;;;;;4957639;29;20046;-81
2023/10/16 10:18:01;;;;;;;1.88;0.50;;;17.80;94.60;;;;;;4958053;29;20039;-81
2023/10/16 10:20:31;;;;;;;3.65;0.60;;;18.00;93.70;;;;;;4940004;29;20039;-82
2023/10/16 10:23:04;;;;;;;2.45;0.50;;;18.10;92.50;;;;;;4957798;29;20119;-82
2023/10/16 10:25:38;;;;;;;2.28;0.40;;;18.10;91.20;;;;;;4957884;29;20050;-82
2023/10/16 10:28:11;;;;;;;2.67;0.50;;;18.10;90.10;;;;;;4957636;29;20036;-81
2023/10/16 10:30:44;;;;;;;1.75;0.45;;;18.00;88.30;;;;;;4957900;28;20062;-81
2023/10/16 10:33:34;;;;;;;2.00;0.50;;;18.10;87.70;;;;;;4957609;29;20038;-81
2023/10/16 10:36:27;;;;;;;1.52;0.30;;;18.40;87.10;;;;;;4939185;29;20175;-81
2023/10/16 10:41:58;;;;;;;3.70;0.65;;;19.40;84.50;;;;;;4945240;29;20344;-81
2023/10/16 10:44:37;;;;;;;3.00;0.45;;;19.70;83.60;;;;;;4939965;29;20090;-81
2023/10/16 10:47:23;;;;;;;1.40;0.32;;;20.10;81.10;;;;;;4940113;29;20031;-82
2023/10/16 10:49:51;;;;;;;2.40;0.50;;;20.40;79.50;;;;;;4957120;29;20031;-81
2023/10/16 10:52:22;;;;;;;2.97;0.43;;;20.60;79.20;;;;;;4957030;29;20041;-81
2023/10/16 10:54:58;;;;;;;1.58;0.30;;;20.80;77.40;;;;;;4957177;29;20050;-81
2023/10/16 10:57:24;;;;;;;2.45;0.32;;;21.00;74.80;;;;;;4957867;29;20051;-81
2023/10/16 11:00:22;;;;;;;3.38;0.47;;;21.00;74.30;;;;;;4959528;29;20044;-81
2023/10/16 11:05:24;;;;;;;2.28;0.45;;;21.30;72.10;;;;;;4957006;29;20110;-81
2023/10/16 11:10:41;;;;;;;1.88;0.38;;;21.60;69.80;;;;;;4955131;29;20134;-82
2023/10/16 11:13:11;;;;;;;3.38;0.50;;;21.80;69.00;;;;;;4956952;29;20073;-81
2023/10/16 11:15:54;;;;;;;3.22;0.52;;;22.00;68.60;;;;;;4956766;29;20071;-81
2023/10/16 11:18:26;;;;;;;4.05;0.30;;;22.20;67.10;;;;;;4956243;29;20047;-81
2023/10/16 11:20:57;;;;;;;0.95;0.30;;;22.50;66.70;;;;;;4939527;29;20571;-81
2023/10/16 11:23:31;;;;;;;2.50;0.47;;;22.70;66.20;;;;;;4956570;29;20038;-82
2023/10/16 11:25:58;;;;;;;2.45;0.40;;;22.90;65.60;;;;;;4939425;29;20487;-81
2023/10/16 11:28:36;;;;;;;2.20;0.38;;;23.10;64.40;;;;;;4956619;29;20047;-81
2023/10/16 11:31:09;;;;;;;3.42;0.90;;;23.10;63.40;;;;;;4956047;29;20044;-81
2023/10/16 11:33:44;;;;;;;3.30;0.40;;;23.00;62.50;;;;;;4938655;29;20439;-81
2023/10/16 11:36:13;;;;;;;3.75;0.35;;;23.00;61.50;;;;;;4956394;29;20038;-81
2023/10/16 11:38:40;;;;;;;3.05;0.50;;;22.90;60.90;;;;;;4955958;29;20480;-82
2023/10/16 11:41:11;;;;;;;2.60;0.35;;;22.90;60.10;;;;;;4956152;29;20424;-81
2023/10/16 11:43:53;;;;;;;1.33;0.30;;;22.80;59.60;;;;;;4956305;29;20044;-82
2023/10/16 11:46:38;;;;;;;3.45;0.30;;;22.50;59.30;;;;;;4956006;28;20031;-80
2023/10/16 11:49:39;;;;;;;2.90;0.40;;;22.10;59.00;;;;;;4956044;29;20067;-81
2023/10/16 11:52:09;;;;;;;1.10;0.30;;;21.70;58.90;;;;;;4972373;28;20037;-81
2023/10/16 11:54:40;;;;;;;3.53;0.38;;;21.50;59.60;;;;;;4975177;28;20046;-81
2023/10/16 11:57:06;;;;;;;2.00;0.32;;;21.40;59.80;;;;;;4942666;28;20034;-80
2023/10/16 11:59:32;;;;;;;1.55;0.30;;;21.40;59.80;;;;;;4975161;28;20037;-79
2023/10/16 12:02:10;;;;;;;1.75;0.30;;;21.30;59.80;;;;;;4974816;28;20047;-80
2023/10/16 12:04:37;;;;;;;2.03;0.30;;;21.40;59.70;;;;;;4957649;28;20022;-79
2023/10/16 12:07:02;;;;;;;1.50;0.20;;;21.30;59.50;;;;;;4975044;28;20030;-81
2023/10/16 12:09:36;;;;;;;3.03;0.30;;;21.30;59.30;;;;;;4975105;28;20043;-81
2023/10/16 12:12:06;;;;;;;1.63;0.20;;;21.30;59.10;;;;;;4975082;28;20097;-80
2023/10/16 12:14:38;;;;;;;1.75;0.20;;;21.30;59.00;;;;;;4974567;28;20121;-80
2023/10/16 12:17:11;;;;;;;1.10;0.35;;;21.40;58.80;;;;;;4974548;28;20027;-80
2023/10/16 12:19:37;;;;;;;;;;;21.50;58.60;;;;;;4975374;28;20069;-80
2023/10/16 12:22:03;;;;;;;0.40;0.13;;;21.60;58.30;;;;;;4974805;28;19977;-80
2023/10/16 12:24:29;;;;;;;2.40;0.20;;;21.70;58.60;;;;;;4974727;28;20059;-79
2023/10/16 12:26:55;;;;;;;3.47;0.30;;;21.70;58.30;;;;;;4974895;28;20034;-80
2023/10/16 12:29:21;;;;;;;2.30;0.30;;;21.70;57.70;;;;;;4957102;28;20503;-80
2023/10/16 12:31:48;;;;;;;1.38;0.20;;;21.50;57.10;;;;;;4957166;28;20047;-79
2023/10/16 12:34:16;;;;;;;2.15;0.30;;;21.20;57.20;;;;;;4974476;28;20118;-79
2023/10/16 12:36:43;;;;;;;1.50;0.30;;;20.90;57.40;;;;;;4956995;28;20042;-79
2023/10/16 12:39:24;;;;;;;2.65;0.20;;;20.50;57.80;;;;;;4957259;28;20038;-80
2023/10/16 12:41:57;;;;;;;2.53;0.30;;;20.10;58.10;;;;;;4974434;28;20049;-79
2023/10/16 12:44:26;;;;;;;1.45;0.30;;;19.80;58.60;;;;;;4974404;28;20074;-80
2023/10/16 12:46:53;;;;;;;1.52;0.38;;;19.60;58.90;;;;;;4974256;28;20110;-79
2023/10/16 12:49:20;;;;;;;1.35;0.32;;;19.30;59.20;;;;;;4973990;28;20490;-79
2023/10/16 12:51:46;;;;;;;1.88;0.35;;;19.00;59.30;;;;;;4974215;28;20041;-79
2023/10/16 12:54:12;;;;;;;3.88;0.60;;;18.80;59.80;;;;;;4973931;28;20035;-79
2023/10/16 12:56:41;;;;;;;2.45;0.28;;;18.60;60.30;;;;;;4957040;28;20067;-79
2023/10/16 12:59:13;;;;;;;3.78;0.60;;;18.50;60.70;;;;;;4970064;28;20023;-81
2023/10/16 13:01:38;;;;;;;1.80;0.30;;;18.30;61.10;;;;;;4955037;28;20039;-79
2023/10/16 13:04:13;;;;;;;3.88;0.38;;;18.10;61.50;;;;;;4954649;29;20075;-81
2023/10/16 13:06:39;;;;;;;0.98;0.20;;;18.00;62.00;;;;;;4954909;29;20067;-79
2023/10/16 13:09:05;;;;;;;3.00;0.45;;;18.00;62.30;;;;;;4954784;29;20031;-80
2023/10/16 13:11:31;;;;;;;0.50;0.20;;;17.90;62.60;;;;;;4954566;29;20067;-80
2023/10/16 13:13:57;;;;;;;1.88;0.30;;;17.90;62.80;;;;;;4954117;29;20126;-79
2023/10/16 13:16:24;;;;;;;2.55;0.40;;;18.00;63.00;;;;;;4954753;29;20599;-79
2023/10/16 13:18:57;;;;;;;1.35;0.30;;;18.10;63.00;;;;;;4937497;29;20395;-80
2023/10/16 13:21:33;;;;;;;4.03;0.40;;;18.30;62.80;;;;;;4954499;29;20031;-80
2023/10/16 13:24:04;;;;;;;3.03;0.40;;;18.40;62.50;;;;;;4937904;29;20031;-80
2023/10/16 13:26:35;;;;;;;1.60;0.30;;;18.40;62.20;;;;;;4954847;29;20035;-79
2023/10/16 13:29:07;;;;;;;2.70;0.20;;;18.50;61.70;;;;;;4954388;29;20122;-79
2023/10/16 13:31:40;;;;;;;2.17;0.28;;;18.50;61.70;;;;;;4954531;29;20126;-79
2023/10/16 13:34:13;;;;;;;1.15;0.30;;;18.50;61.30;;;;;;4954620;29;20035;-79
2023/10/16 13:36:42;;;;;;;3.13;0.20;;;18.40;61.10;;;;;;4954667;29;20067;-80
2023/10/16 13:39:08;;;;;;;1.58;0.30;;;18.40;61.30;;;;;;4954470;29;20039;-79
2023/10/16 13:41:55;;;;;;;1.48;0.20;;;18.30;61.30;;;;;;4954285;29;20047;-80
2023/10/16 13:44:24;;;;;;;3.75;0.75;;;18.10;61.40;;;;;;4954359;29;20027;-80
2023/10/16 13:46:52;;;;;;;4.70;0.30;;;18.00;61.50;;;;;;4953417;29;20027;-80
2023/10/16 13:49:18;;;;;;;1.55;0.40;;;17.90;61.50;;;;;;4954555;29;20039;-80
2023/10/16 13:51:45;;;;;;;2.72;0.40;;;17.70;61.70;;;;;;4954923;29;20046;-80
2023/10/16 13:54:14;;;;;;;2.85;0.50;;;17.60;61.80;;;;;;4953092;29;20460;-79
2023/10/16 13:56:41;;;;;;;1.40;0.20;;;17.40;62.20;;;;;;4937055;29;20027;-79
2023/10/16 13:59:07;;;;;;;2.95;0.30;;;17.30;62.50;;;;;;4936988;29;20023;-80
2023/10/16 14:01:39;;;;;;;3.75;0.40;;;17.20;62.80;;;;;;4937197;29;20090;-79
2023/10/16 14:04:11;;;;;;;2.40;0.35;;;17.20;63.30;;;;;;4954224;29;20038;-80
2023/10/16 14:06:40;;;;;;;2.45;0.45;;;17.20;63.60;;;;;;4954564;29;20110;-80
2023/10/16 14:09:11;;;;;;;0.93;0.30;;;17.10;63.90;;;;;;4954247;28;20068;-79
2023/10/16 14:11:47;;;;;;;0.32;0.20;;;17.20;64.00;;;;;;4957216;29;20035;-79
2023/10/16 14:14:19;;;;;;;2.85;0.35;;;17.20;64.00;;;;;;4957512;29;20098;-79
2023/10/16 14:16:50;;;;;;;2.88;0.40;;;17.20;64.30;;;;;;4958057;29;20039;-80
2023/10/16 14:19:17;;;;;;;3.30;0.30;;;17.40;64.30;;;;;;4958104;29;20035;-80
2023/10/16 14:21:43;;;;;;;4.72;0.55;;;17.40;64.10;;;;;;4940384;29;20047;-80
2023/10/16 14:24:17;;;;;;;4.30;0.63;;;17.50;63.90;;;;;;4957724;29;20126;-80
2023/10/16 14:26:49;;;;;;;1.33;0.25;;;17.50;64.00;;;;;;4955867;29;20396;-79
2023/10/16 14:29:16;;;;;;;1.48;0.30;;;17.50;64.10;;;;;;4957583;29;20488;-79
2023/10/16 14:31:46;;;;;;;2.38;0.30;;;17.50;64.00;;;;;;4957248;29;20044;-79
2023/10/16 14:34:17;;;;;;;3.30;0.38;;;17.50;64.20;;;;;;4957205;29;20422;-79
2023/10/16 14:36:46;;;;;;;2.60;0.30;;;17.60;64.40;;;;;;4957893;29;20039;-80
2023/10/16 14:39:12;;;;;;;4.18;0.60;;;17.70;65.00;;;;;;4957641;29;20035;-80
2023/10/16 14:41:41;;;;;;;5.43;0.40;;;17.70;64.20;;;;;;4957162;29;20039;-80
2023/10/16 14:44:10;;;;;;;3.20;0.35;;;17.80;64.10;;;;;;4957278;29;20035;-79
2023/10/16 14:46:37;;;;;;;3.28;0.40;;;17.80;64.20;;;;;;4939912;29;20491;-80
2023/10/16 14:49:08;;;;;;;3.08;0.30;;;17.80;64.20;;;;;;4957232;29;20487;-80
2023/10/16 14:51:40;;;;;;;2.92;0.40;;;17.80;64.30;;;;;;4957307;29;20028;-80
2023/10/16 14:54:07;;;;;;;2.97;0.43;;;17.70;64.60;;;;;;4957310;29;20043;-80
2023/10/16 14:56:36;;;;;;;1.50;0.40;;;17.60;64.80;;;;;;4939735;29;20070;-80
2023/10/16 14:59:07;;;;;;;1.42;0.30;;;17.70;64.90;;;;;;4956807;29;20439;-79
2023/10/16 15:01:34;;;;;;;1.45;0.38;;;17.60;65.10;;;;;;4957001;29;20035;-79
2023/10/16 15:03:59;;;;;;;1.77;0.22;;;17.60;65.30;;;;;;4939692;29;20099;-79
2023/10/16 15:06:25;;;;;;;1.77;0.20;;;17.60;65.40;;;;;;4956844;29;20563;-80
2023/10/16 15:08:53;;;;;;;1.33;0.22;;;17.60;65.30;;;;;;4955967;29;20031;-80
2023/10/16 15:11:20;;;;;;;3.72;0.30;;;17.50;65.10;;;;;;4941907;29;20063;-79
2023/10/16 15:13:46;;;;;;;1.60;0.40;;;17.50;65.20;;;;;;4960252;29;20035;-79
2023/10/16 15:16:12;;;;;;;4.50;0.50;;;17.40;65.20;;;;;;4961300;29;20067;-82